createdAt,value
2019-04-26T00:00:55.020Z,68.98
2019-04-26T00:03:27.249Z,68.69
2019-04-26T00:06:02.161Z,68.87
2019-04-26T00:08:34.750Z,68.79
2019-04-26T00:11:07.312Z,69.32
2019-04-26T00:13:39.614Z,69.50
2019-04-26T00:16:12.664Z,69.99
2019-04-26T00:18:44.954Z,70.09
2019-04-26T00:21:18.226Z,70.33
2019-04-26T00:23:51.041Z,70.34
2019-04-26T00:26:23.628Z,70.26
2019-04-26T00:28:55.986Z,70.77
2019-04-26T00:31:28.482Z,71.11
2019-04-26T00:34:01.847Z,71.45
2019-04-26T00:36:34.174Z,71.39
2019-04-26T00:39:07.462Z,71.41
2019-04-26T00:41:39.984Z,71.88
2019-04-26T00:44:13.301Z,71.68
2019-04-26T00:46:46.157Z,71.73
2019-04-26T00:49:21.251Z,71.26
2019-04-26T00:51:56.113Z,71.50
2019-04-26T00:54:28.409Z,71.29
2019-04-26T00:57:00.770Z,71.31
2019-04-26T00:59:33.013Z,71.69
2019-04-26T01:02:05.267Z,71.77
2019-04-26T01:04:37.453Z,72.16
2019-04-26T01:07:09.726Z,72.12
2019-04-26T01:09:41.971Z,72.60
2019-04-26T01:12:16.814Z,72.27
2019-04-26T01:14:51.027Z,71.94
2019-04-26T01:17:23.242Z,71.89
2019-04-26T01:19:55.629Z,71.60
2019-04-26T01:22:27.997Z,71.43
2019-04-26T01:25:00.308Z,70.95
2019-04-26T01:27:32.609Z,71.09
2019-04-26T01:30:06.928Z,70.66
2019-04-26T01:32:39.263Z,70.81
2019-04-26T01:35:11.498Z,70.92
2019-04-26T01:37:43.879Z,70.83
2019-04-26T01:40:16.123Z,71.01
2019-04-26T01:42:48.234Z,71.16
2019-04-26T01:45:21.686Z,71.26
2019-04-26T01:47:54.118Z,71.25
2019-04-26T01:50:27.380Z,71.28
2019-04-26T01:53:01.359Z,71.39
2019-04-26T01:55:33.698Z,71.29
2019-04-26T01:58:05.898Z,71.59
2019-04-26T02:00:38.149Z,71.34
2019-04-26T02:03:11.453Z,71.18
2019-04-26T02:05:45.799Z,71.05
2019-04-26T02:08:18.038Z,71.03
2019-04-26T02:10:50.337Z,71.25
2019-04-26T02:13:23.619Z,71.10
2019-04-26T02:15:56.514Z,71.55
2019-04-26T02:18:29.784Z,71.53
2019-04-26T02:21:02.041Z,71.43
2019-04-26T02:23:34.407Z,71.38
2019-04-26T02:26:06.646Z,71.56
2019-04-26T02:28:38.936Z,71.86
2019-04-26T02:31:11.142Z,71.57
2019-04-26T02:33:43.403Z,70.99
2019-04-26T02:36:15.654Z,71.05
2019-04-26T02:38:47.889Z,70.77
2019-04-26T02:41:22.386Z,70.89
2019-04-26T02:43:54.610Z,71.17
2019-04-26T02:46:28.633Z,70.84
2019-04-26T02:49:00.850Z,71.06
2019-04-26T02:51:34.753Z,71.21
2019-04-26T02:54:07.160Z,71.57
2019-04-26T02:56:40.102Z,71.64
2019-04-26T02:59:12.586Z,71.87
2019-04-26T03:01:44.861Z,72.22
2019-04-26T03:04:17.055Z,71.82
2019-04-26T03:07:02.516Z,71.79
2019-04-26T03:09:23.210Z,71.87
2019-04-26T03:11:55.399Z,72.02
2019-04-26T03:14:27.602Z,72.27
2019-04-26T03:17:00.095Z,71.87
2019-04-26T03:19:36.210Z,71.95
2019-04-26T03:22:09.568Z,71.51
2019-04-26T03:24:42.610Z,71.70
2019-04-26T03:27:14.955Z,71.85
2019-04-26T03:29:47.176Z,71.94
2019-04-26T03:32:19.373Z,71.57
2019-04-26T03:34:54.957Z,71.66
2019-04-26T03:37:25.553Z,71.58
2019-04-26T03:39:57.636Z,71.65
2019-04-26T03:42:29.882Z,71.75
2019-04-26T03:45:02.084Z,71.57
2019-04-26T03:47:38.576Z,71.83
2019-04-26T03:50:09.690Z,72.27
2019-04-26T03:52:43.546Z,72.23
2019-04-26T03:55:18.122Z,72.04
2019-04-26T03:57:50.388Z,71.80
2019-04-26T04:00:22.578Z,72.14
2019-04-26T04:02:54.793Z,72.20
2019-04-26T04:05:27.200Z,72.02
2019-04-26T04:07:59.412Z,71.87
2019-04-26T04:10:31.761Z,71.99
2019-04-26T04:13:04.044Z,72.14
2019-04-26T04:15:37.886Z,72.26
2019-04-26T04:18:10.229Z,72.86
2019-04-26T04:20:43.149Z,73.06
2019-04-26T04:23:16.435Z,73.08
2019-04-26T04:25:49.210Z,73.50
2019-04-26T04:28:21.573Z,73.65
2019-04-26T04:30:53.775Z,73.62
2019-04-26T04:33:26.142Z,73.74
2019-04-26T04:35:58.640Z,73.64
2019-04-26T04:38:31.080Z,73.62
2019-04-26T04:41:03.343Z,73.50
2019-04-26T04:43:35.556Z,73.33
2019-04-26T04:46:07.945Z,73.39
2019-04-26T04:48:42.382Z,73.26
2019-04-26T04:51:14.345Z,73.73
2019-04-26T04:53:47.803Z,73.84
2019-04-26T04:56:20.149Z,73.91
2019-04-26T04:58:52.585Z,74.11
2019-04-26T05:01:24.792Z,73.93
2019-04-26T05:03:57.038Z,73.82
2019-04-26T05:06:29.295Z,73.94
2019-04-26T05:09:01.510Z,73.99
2019-04-26T05:11:35.362Z,73.79
2019-04-26T05:14:07.567Z,73.41
2019-04-26T05:16:39.655Z,73.65
2019-04-26T05:19:11.919Z,73.71
2019-04-26T05:21:45.344Z,73.49
2019-04-26T05:24:17.783Z,73.47
2019-04-26T05:26:50.093Z,73.43
2019-04-26T05:29:22.478Z,73.11
2019-04-26T05:31:54.707Z,73.08
2019-04-26T05:34:26.941Z,72.53
2019-04-26T05:36:59.216Z,72.68
2019-04-26T05:39:31.439Z,72.23
2019-04-26T05:42:03.683Z,72.42
2019-04-26T05:44:36.063Z,71.74
2019-04-26T05:47:08.272Z,71.94
2019-04-26T05:49:40.517Z,71.74
2019-04-26T05:52:13.712Z,71.26
2019-04-26T05:54:46.157Z,71.24
2019-04-26T05:57:18.461Z,71.22
2019-04-26T05:59:52.300Z,71.05
2019-04-26T06:02:24.671Z,71.12
2019-04-26T06:04:57.206Z,71.28
2019-04-26T06:07:29.682Z,71.28
2019-04-26T06:10:03.004Z,71.38
2019-04-26T06:12:35.380Z,71.48
2019-04-26T06:15:07.705Z,71.99
2019-04-26T06:17:39.951Z,72.21
2019-04-26T06:20:22.270Z,71.80
2019-04-26T06:22:46.175Z,71.21
2019-04-26T06:25:18.426Z,71.05
2019-04-26T06:27:50.545Z,71.19
2019-04-26T06:30:24.067Z,71.08
2019-04-26T06:33:03.214Z,71.07
2019-04-26T06:35:30.355Z,71.21
2019-04-26T06:38:03.939Z,71.49
2019-04-26T06:40:42.101Z,71.70
2019-04-26T06:43:13.546Z,71.60
2019-04-26T06:45:48.129Z,71.13
2019-04-26T06:48:21.777Z,70.96
2019-04-26T06:50:54.021Z,70.78
2019-04-26T06:53:26.320Z,70.48
2019-04-26T06:55:59.128Z,70.25
2019-04-26T06:58:31.882Z,69.58
2019-04-26T07:01:05.335Z,69.78
2019-04-26T07:03:39.119Z,69.27
2019-04-26T07:06:12.140Z,69.23
2019-04-26T07:08:56.721Z,68.49
2019-04-26T07:11:18.437Z,68.41
2019-04-26T07:13:50.814Z,67.80
2019-04-26T07:16:23.488Z,67.26
2019-04-26T07:18:55.862Z,67.03
2019-04-26T07:21:28.430Z,67.32
2019-04-26T07:24:01.223Z,67.00
2019-04-26T07:26:34.844Z,67.11
2019-04-26T07:29:07.182Z,66.96
2019-04-26T07:31:41.698Z,66.51
2019-04-26T07:34:13.961Z,66.41
2019-04-26T07:36:46.171Z,66.50
2019-04-26T07:39:20.712Z,65.75
2019-04-26T07:41:52.773Z,66.44
2019-04-26T07:44:24.999Z,65.60
2019-04-26T07:46:57.303Z,65.07
2019-04-26T07:49:29.815Z,64.76
2019-04-26T07:52:02.939Z,64.21
2019-04-26T07:54:35.245Z,64.19
2019-04-26T07:57:08.652Z,63.91
2019-04-26T07:59:41.112Z,64.18
2019-04-26T08:02:13.442Z,64.24
2019-04-26T08:04:45.677Z,64.33
2019-04-26T08:07:17.914Z,64.71
2019-04-26T08:09:59.862Z,65.27
2019-04-26T08:12:26.183Z,65.96
2019-04-26T08:14:58.479Z,64.96
2019-04-26T08:17:30.698Z,66.33
2019-04-26T08:20:06.647Z,65.79
2019-04-26T08:22:36.969Z,65.50
2019-04-26T08:25:10.323Z,65.41
2019-04-26T08:27:43.771Z,65.12
2019-04-26T08:30:18.936Z,65.36
2019-04-26T08:32:50.223Z,65.04
2019-04-26T08:35:22.491Z,64.03
2019-04-26T08:37:54.769Z,63.38
2019-04-26T08:40:31.097Z,62.39
2019-04-26T08:43:00.968Z,61.13
2019-04-26T08:45:33.260Z,60.57
2019-04-26T08:48:05.498Z,60.18
2019-04-26T08:50:37.748Z,59.15
2019-04-26T08:53:11.197Z,59.36
2019-04-26T08:55:43.487Z,59.67
2019-04-26T08:58:15.793Z,58.83
2019-04-26T09:00:47.993Z,58.08
2019-04-26T09:03:20.542Z,58.41
2019-04-26T09:05:52.772Z,58.12
2019-04-26T09:08:25.002Z,57.61
2019-04-26T09:10:57.261Z,57.98
2019-04-26T09:13:29.582Z,57.10
2019-04-26T09:16:01.950Z,57.09
2019-04-26T09:18:43.241Z,56.31
2019-04-26T09:21:08.181Z,56.28
2019-04-26T09:23:44.176Z,56.29
2019-04-26T09:26:14.407Z,57.11
2019-04-26T09:28:46.813Z,57.32
2019-04-26T09:31:19.586Z,57.02
2019-04-26T09:33:53.225Z,57.12
2019-04-26T09:36:25.550Z,56.05
2019-04-26T09:38:57.772Z,54.77
2019-04-26T09:41:30.807Z,55.56
2019-04-26T09:44:03.274Z,55.62
2019-04-26T09:46:35.519Z,55.95
2019-04-26T09:49:08.558Z,56.13
2019-04-26T09:51:42.107Z,56.06
2019-04-26T09:54:16.888Z,57.20
2019-04-26T09:56:49.108Z,57.23
2019-04-26T09:59:21.573Z,56.94
2019-04-26T10:01:55.410Z,56.74
2019-04-26T10:04:27.848Z,56.45
2019-04-26T10:07:03.177Z,54.44
2019-04-26T10:09:34.249Z,54.53
2019-04-26T10:12:07.645Z,53.02
2019-04-26T10:14:39.923Z,52.06
2019-04-26T10:17:15.639Z,50.99
2019-04-26T10:19:46.220Z,51.75
2019-04-26T10:22:18.750Z,50.29
2019-04-26T10:24:51.047Z,51.11
2019-04-26T10:27:23.258Z,51.59
2019-04-26T10:30:03.057Z,51.59
2019-04-26T10:32:29.419Z,48.81
2019-04-26T10:35:01.685Z,49.79
2019-04-26T10:37:39.644Z,50.24
2019-04-26T10:40:08.098Z,48.35
2019-04-26T10:42:40.398Z,47.57
2019-04-26T10:45:14.502Z,48.23
2019-04-26T10:47:46.561Z,48.74
2019-04-26T10:50:18.861Z,48.61
2019-04-26T10:52:55.516Z,47.99
2019-04-26T10:55:27.360Z,46.84
2019-04-26T10:57:59.790Z,45.96
2019-04-26T11:00:31.991Z,45.24
2019-04-26T11:03:06.025Z,45.56
2019-04-26T11:05:38.311Z,44.55
2019-04-26T11:08:10.595Z,45.21
2019-04-26T11:10:48.719Z,45.12
2019-04-26T11:13:17.026Z,46.44
2019-04-26T11:15:49.269Z,44.50
2019-04-26T11:18:27.351Z,43.33
2019-04-26T11:20:57.603Z,43.24
2019-04-26T11:23:29.814Z,42.72
2019-04-26T11:26:02.915Z,42.76
2019-04-26T11:28:35.309Z,42.78
2019-04-26T11:31:07.656Z,43.74
2019-04-26T11:33:45.082Z,44.55
2019-04-26T11:36:14.032Z,44.23
2019-04-26T11:38:46.261Z,44.31
2019-04-26T11:41:18.442Z,44.56
2019-04-26T11:43:53.005Z,43.37
2019-04-26T11:46:29.140Z,41.98
2019-04-26T11:48:59.506Z,40.74
2019-04-26T11:51:32.692Z,33.80
2019-04-26T11:54:04.961Z,32.94
2019-04-26T11:56:37.544Z,35.29
2019-04-26T11:59:12.088Z,38.07
2019-04-26T12:01:44.288Z,37.33
2019-04-26T12:04:16.659Z,35.99
2019-04-26T12:06:48.970Z,35.64
2019-04-26T12:09:21.216Z,34.73
2019-04-26T12:12:03.949Z,34.36
2019-04-26T12:14:29.599Z,33.37
2019-04-26T12:17:02.422Z,30.31
2019-04-26T12:19:34.664Z,27.54
2019-04-26T12:22:08.373Z,26.48
2019-04-26T12:24:40.833Z,29.98
2019-04-26T12:27:13.294Z,31.32
2019-04-26T12:29:48.227Z,32.83
2019-04-26T12:32:19.687Z,31.13
2019-04-26T12:34:51.959Z,30.04
2019-04-26T12:37:24.588Z,28.20
2019-04-26T12:39:58.791Z,28.73
2019-04-26T12:42:31.166Z,29.40
2019-04-26T12:45:03.394Z,29.98
2019-04-26T12:47:38.559Z,31.40
2019-04-26T12:50:10.359Z,30.17
2019-04-26T12:52:42.732Z,29.87
2019-04-26T12:55:18.287Z,29.71
2019-04-26T12:57:50.447Z,29.93
2019-04-26T13:00:22.687Z,27.76
2019-04-26T13:02:55.807Z,25.40
2019-04-26T13:05:28.689Z,24.64
2019-04-26T13:08:01.591Z,24.37
2019-04-26T13:10:35.503Z,22.63
2019-04-26T13:13:09.476Z,23.42
2019-04-26T13:15:42.405Z,20.13
2019-04-26T13:18:15.381Z,21.22
2019-04-26T13:20:48.182Z,21.12
2019-04-26T13:23:21.130Z,20.41
2019-04-26T13:25:55.433Z,20.33
2019-04-26T13:28:28.450Z,20.83
2019-04-26T13:31:02.457Z,21.13
2019-04-26T13:33:35.618Z,20.29
2019-04-26T13:36:08.576Z,19.70
2019-04-26T13:38:43.446Z,19.55
2019-04-26T13:41:15.971Z,17.57
2019-04-26T13:43:48.805Z,18.08
2019-04-26T13:46:21.709Z,19.91
2019-04-26T13:48:54.577Z,22.12
2019-04-26T13:51:26.817Z,24.38
2019-04-26T13:53:59.131Z,26.13
2019-04-26T13:56:35.491Z,28.84
2019-04-26T13:59:05.896Z,26.14
2019-04-26T14:01:38.156Z,25.86
2019-04-26T14:04:10.451Z,25.64
2019-04-26T14:06:42.759Z,26.15
2019-04-26T14:09:15.179Z,27.86
2019-04-26T14:11:47.499Z,29.79
2019-04-26T14:14:19.859Z,31.13
2019-04-26T14:16:55.825Z,31.46
2019-04-26T14:19:26.500Z,32.03
2019-04-26T14:21:59.103Z,34.10
2019-04-26T14:24:32.414Z,34.69
2019-04-26T14:27:04.863Z,35.73
2019-04-26T14:29:37.355Z,35.55
2019-04-26T14:32:09.753Z,35.63
2019-04-26T14:34:43.815Z,32.13
2019-04-26T14:37:16.747Z,31.60
2019-04-26T14:39:51.230Z,30.54
2019-04-26T14:42:33.727Z,29.93
2019-04-26T14:44:57.429Z,30.25
2019-04-26T14:47:30.533Z,30.73
2019-04-26T14:50:13.702Z,31.64
2019-04-26T14:52:37.645Z,32.08
2019-04-26T14:55:09.855Z,31.60
2019-04-26T14:57:42.797Z,32.27
2019-04-26T15:00:16.699Z,32.61
2019-04-26T15:02:49.111Z,33.26
2019-04-26T15:05:22.228Z,32.36
2019-04-26T15:07:55.583Z,32.41
2019-04-26T15:10:27.913Z,31.88
2019-04-26T15:13:14.975Z,31.63
2019-04-26T15:15:36.213Z,32.18
2019-04-26T15:18:08.422Z,33.88
2019-04-26T15:20:40.800Z,33.97
2019-04-26T15:23:13.416Z,34.72
2019-04-26T15:25:48.849Z,35.25
2019-04-26T15:28:19.647Z,34.34
2019-04-26T15:30:52.726Z,35.16
2019-04-26T15:33:25.320Z,34.46
2019-04-26T15:35:57.574Z,35.03
2019-04-26T15:38:35.200Z,33.82
2019-04-26T15:41:05.498Z,32.54
2019-04-26T15:43:37.687Z,32.52
2019-04-26T15:46:12.329Z,31.95
2019-04-26T15:48:44.133Z,32.11
2019-04-26T15:51:16.418Z,32.42
2019-04-26T15:53:49.661Z,32.87
2019-04-26T15:56:22.354Z,32.02
2019-04-26T15:58:54.535Z,30.56
2019-04-26T16:01:26.839Z,28.36
2019-04-26T16:03:59.058Z,27.42
2019-04-26T16:06:32.427Z,27.72
2019-04-26T16:09:04.681Z,27.62
2019-04-26T16:11:42.818Z,28.29
2019-04-26T16:14:12.808Z,28.93
2019-04-26T16:16:45.093Z,28.64
2019-04-26T16:19:17.369Z,28.23
2019-04-26T16:21:52.739Z,28.27
2019-04-26T16:24:27.528Z,28.72
2019-04-26T16:26:58.061Z,29.49
2019-04-26T16:29:32.066Z,30.56
2019-04-26T16:32:04.526Z,31.38
2019-04-26T16:34:42.940Z,32.90
2019-04-26T16:37:14.945Z,34.87
2019-04-26T16:39:48.585Z,35.16
2019-04-26T16:42:18.748Z,35.53
2019-04-26T16:44:53.147Z,35.71
2019-04-26T16:47:25.000Z,36.08
2019-04-26T16:50:01.126Z,34.40
2019-04-26T16:52:33.688Z,33.25
2019-04-26T16:55:15.301Z,32.25
2019-04-26T16:57:43.765Z,33.80
2019-04-26T17:00:46.823Z,34.31
2019-04-26T17:02:48.675Z,36.00
2019-04-26T17:05:35.543Z,36.73
2019-04-26T17:07:58.859Z,37.29
2019-04-26T17:10:29.087Z,36.98
2019-04-26T17:13:03.047Z,37.64
2019-04-26T17:15:35.601Z,39.04
2019-04-26T17:18:07.964Z,39.22
2019-04-26T17:20:40.598Z,39.66
2019-04-26T17:23:15.291Z,41.29
2019-04-26T17:25:47.520Z,41.40
2019-04-26T17:28:22.981Z,40.66
2019-04-26T17:30:54.133Z,41.09
2019-04-26T17:33:28.235Z,40.92
2019-04-26T17:36:00.486Z,41.18
2019-04-26T17:38:35.194Z,41.49
2019-04-26T17:41:10.910Z,41.56
2019-04-26T17:43:46.861Z,41.93
2019-04-26T17:46:18.321Z,41.85
2019-04-26T17:48:50.435Z,42.07
2019-04-26T17:51:23.354Z,41.50
2019-04-26T17:54:18.971Z,41.95
2019-04-26T17:56:31.403Z,41.68
2019-04-26T17:59:09.203Z,42.12
2019-04-26T18:01:46.888Z,42.00
2019-04-26T18:04:12.843Z,41.40
2019-04-26T18:06:54.339Z,41.79
2019-04-26T18:09:40.442Z,42.16
2019-04-26T18:11:55.276Z,42.36
2019-04-26T18:14:30.345Z,43.33
2019-04-26T18:17:01.606Z,42.98
2019-04-26T18:19:35.293Z,43.09
2019-04-26T18:22:08.588Z,43.44
2019-04-26T18:24:40.836Z,43.93
2019-04-26T18:27:14.781Z,44.37
2019-04-26T18:29:47.196Z,44.65
2019-04-26T18:32:19.441Z,44.90
2019-04-26T18:34:53.500Z,45.25
2019-04-26T18:37:25.628Z,45.93
2019-04-26T18:40:02.070Z,45.57
2019-04-26T18:42:33.505Z,45.13
2019-04-26T18:45:06.046Z,44.99
2019-04-26T18:47:38.395Z,45.73
2019-04-26T18:50:10.807Z,44.83
2019-04-26T18:52:43.126Z,44.86
2019-04-26T18:55:16.359Z,45.26
2019-04-26T18:57:55.143Z,45.22
2019-04-26T19:00:26.457Z,45.30
2019-04-26T19:03:00.015Z,45.33
2019-04-26T19:05:33.714Z,44.82
2019-04-26T19:08:07.566Z,45.47
2019-04-26T19:10:40.016Z,45.39
2019-04-26T19:13:12.501Z,45.67
2019-04-26T19:15:44.934Z,45.61
2019-04-26T19:18:17.302Z,45.92
2019-04-26T19:20:49.550Z,45.50
2019-04-26T19:23:24.441Z,45.95
2019-04-26T19:25:55.995Z,46.13
2019-04-26T19:28:29.443Z,46.46
2019-04-26T19:31:02.397Z,46.58
2019-04-26T19:33:35.050Z,46.56
2019-04-26T19:36:07.367Z,47.02
2019-04-26T19:38:43.734Z,47.45
2019-04-26T19:41:17.336Z,47.55
2019-04-26T19:43:48.072Z,47.15
2019-04-26T19:46:23.413Z,47.45
2019-04-26T19:48:56.569Z,47.22
2019-04-26T19:51:28.243Z,47.67
2019-04-26T19:54:01.792Z,47.92
2019-04-26T19:56:35.514Z,48.43
2019-04-26T19:59:07.743Z,48.62
2019-04-26T20:01:40.078Z,48.54
2019-04-26T20:04:13.512Z,48.95
2019-04-26T20:06:48.456Z,50.01
2019-04-26T20:09:22.749Z,49.39
2019-04-26T20:11:57.867Z,49.67
2019-04-26T20:14:39.887Z,49.50
2019-04-26T20:17:02.080Z,49.60
2019-04-26T20:19:37.502Z,50.04
2019-04-26T20:22:09.921Z,50.42
2019-04-26T20:24:42.992Z,50.60
2019-04-26T20:27:20.408Z,51.20
2019-04-26T20:29:49.550Z,51.69
2019-04-26T20:32:24.682Z,51.69
2019-04-26T20:34:57.002Z,51.34
2019-04-26T20:37:29.181Z,51.34
2019-04-26T20:40:16.308Z,51.72
2019-04-26T20:42:35.357Z,51.86
2019-04-26T20:45:08.458Z,52.81
2019-04-26T20:47:41.733Z,51.69
2019-04-26T20:50:14.094Z,52.48
2019-04-26T20:52:46.566Z,53.18
2019-04-26T20:55:24.645Z,52.88
2019-04-26T20:57:52.749Z,52.99
2019-04-26T21:00:24.953Z,52.76
2019-04-26T21:03:01.453Z,52.99
2019-04-26T21:05:45.294Z,53.02
2019-04-26T21:08:05.095Z,53.93
2019-04-26T21:10:37.409Z,54.09
2019-04-26T21:13:09.692Z,54.39
2019-04-26T21:15:53.531Z,54.89
2019-04-26T21:18:15.855Z,54.52
2019-04-26T21:20:52.112Z,54.16
2019-04-26T21:23:24.388Z,54.85
2019-04-26T21:25:56.677Z,54.62
2019-04-26T21:28:29.066Z,54.82
2019-04-26T21:31:03.438Z,55.11
2019-04-26T21:33:38.884Z,55.26
2019-04-26T21:36:09.342Z,55.41
2019-04-26T21:38:41.556Z,55.78
2019-04-26T21:41:14.377Z,55.93
2019-04-26T21:43:46.729Z,56.09
2019-04-26T21:46:20.137Z,56.49
2019-04-26T21:48:53.650Z,56.40
2019-04-26T21:51:25.917Z,56.57
2019-04-26T21:53:58.150Z,56.88
2019-04-26T21:56:32.068Z,56.97
2019-04-26T21:59:05.529Z,57.04
2019-04-26T22:01:37.743Z,57.28
2019-04-26T22:04:13.273Z,57.68
2019-04-26T22:06:45.944Z,57.31
2019-04-26T22:09:18.211Z,57.89
2019-04-26T22:11:53.979Z,57.40
2019-04-26T22:14:24.416Z,57.11
2019-04-26T22:16:57.502Z,56.72
2019-04-26T22:19:32.295Z,56.94
2019-04-26T22:22:06.969Z,56.71
2019-04-26T22:24:38.903Z,56.90
2019-04-26T22:27:13.325Z,57.22
2019-04-26T22:29:47.548Z,57.52
2019-04-26T22:32:19.853Z,58.24
2019-04-26T22:34:53.819Z,58.00
2019-04-26T22:37:29.866Z,57.99
2019-04-26T22:40:03.558Z,57.85
2019-04-26T22:42:40.354Z,57.87
2019-04-26T22:45:10.549Z,57.97
2019-04-26T22:47:42.880Z,58.48
2019-04-26T22:50:20.825Z,58.58
2019-04-26T22:52:51.595Z,59.16
2019-04-26T22:55:27.408Z,59.26
2019-04-26T22:57:58.280Z,59.52
2019-04-26T23:00:30.490Z,59.49
2019-04-26T23:03:06.925Z,59.76
2019-04-26T23:05:39.157Z,60.05
2019-04-26T23:08:10.728Z,59.87
2019-04-26T23:10:43.040Z,60.08
2019-04-26T23:13:15.275Z,60.58
2019-04-26T23:15:47.746Z,60.39
2019-04-26T23:18:20.171Z,60.53
2019-04-26T23:20:53.314Z,60.87
2019-04-26T23:23:25.595Z,60.64
2019-04-26T23:25:57.897Z,60.91
2019-04-26T23:28:33.978Z,61.16
2019-04-26T23:31:07.813Z,61.47
2019-04-26T23:33:37.958Z,61.73
2019-04-26T23:36:10.168Z,62.16
2019-04-26T23:38:43.858Z,62.04
2019-04-26T23:41:16.305Z,62.37
2019-04-26T23:43:48.572Z,62.53
2019-04-26T23:46:22.833Z,62.91
2019-04-26T23:48:54.753Z,63.23
2019-04-26T23:51:26.939Z,63.44
2019-04-26T23:53:59.309Z,63.50
2019-04-26T23:56:33.206Z,63.47
2019-04-26T23:59:05.895Z,63.49
